sensor_id;sensor_type;location;lat;lon;timestamp;P1;durP1;ratioP1;P2;durP2;ratioP2
48006;SDS011;33771;48.180;11.400;2023-09-08T00:02:08;8.82;;;6.65;;
48006;SDS011;33771;48.180;11.400;2023-09-08T00:04:35;10.88;;;6.90;;
48006;SDS011;33771;48.180;11.400;2023-09-08T00:07:00;12.90;;;7.32;;
48006;SDS011;33771;48.180;11.400;2023-09-08T00:09:26;8.90;;;6.90;;
48006;SDS011;33771;48.180;11.400;2023-09-08T00:11:52;10.90;;;6.20;;
48006;SDS011;33771;48.180;11.400;2023-09-08T00:14:19;10.45;;;6.05;;
48006;SDS011;33771;48.180;11.400;2023-09-08T00:16:45;11.82;;;6.88;;
48006;SDS011;33771;48.180;11.400;2023-09-08T00:19:10;10.13;;;6.47;;
48006;SDS011;33771;48.180;11.400;2023-09-08T00:21:36;12.85;;;7.22;;
48006;SDS011;33771;48.180;11.400;2023-09-08T00:24:02;10.95;;;6.60;;
48006;SDS011;33771;48.180;11.400;2023-09-08T00:26:29;7.78;;;6.50;;
48006;SDS011;33771;48.180;11.400;2023-09-08T00:28:54;9.98;;;6.30;;
48006;SDS011;33771;48.180;11.400;2023-09-08T00:31:20;8.32;;;6.20;;
48006;SDS011;33771;48.180;11.400;2023-09-08T00:33:46;8.88;;;6.00;;
48006;SDS011;33771;48.180;11.400;2023-09-08T00:36:11;10.15;;;7.07;;
48006;SDS011;33771;48.180;11.400;2023-09-08T00:38:37;8.48;;;6.57;;
48006;SDS011;33771;48.180;11.400;2023-09-08T00:41:04;7.45;;;5.97;;
48006;SDS011;33771;48.180;11.400;2023-09-08T00:43:30;13.40;;;6.72;;
48006;SDS011;33771;48.180;11.400;2023-09-08T00:45:55;10.95;;;6.22;;
48006;SDS011;33771;48.180;11.400;2023-09-08T00:48:23;9.50;;;6.30;;
48006;SDS011;33771;48.180;11.400;2023-09-08T00:50:49;14.07;;;6.65;;
48006;SDS011;33771;48.180;11.400;2023-09-08T00:53:15;9.48;;;6.53;;
48006;SDS011;33771;48.180;11.400;2023-09-08T00:55:40;10.18;;;6.82;;
48006;SDS011;33771;48.180;11.400;2023-09-08T00:58:06;10.63;;;7.20;;
48006;SDS011;33771;48.180;11.400;2023-09-08T01:00:32;9.80;;;7.30;;
48006;SDS011;33771;48.180;11.400;2023-09-08T01:02:58;8.98;;;6.93;;
48006;SDS011;33771;48.180;11.400;2023-09-08T01:05:24;10.82;;;6.97;;
48006;SDS011;33771;48.180;11.400;2023-09-08T01:07:50;10.68;;;7.28;;
48006;SDS011;33771;48.180;11.400;2023-09-08T01:10:17;9.27;;;6.82;;
48006;SDS011;33771;48.180;11.400;2023-09-08T01:12:43;10.50;;;6.40;;
48006;SDS011;33771;48.180;11.400;2023-09-08T01:15:09;11.18;;;6.70;;
48006;SDS011;33771;48.180;11.400;2023-09-08T01:17:34;10.52;;;7.35;;
48006;SDS011;33771;48.180;11.400;2023-09-08T01:20:17;11.80;;;7.60;;
48006;SDS011;33771;48.180;11.400;2023-09-08T01:25:54;8.05;;;6.43;;
48006;SDS011;33771;48.180;11.400;2023-09-08T01:28:22;9.98;;;6.50;;
48006;SDS011;33771;48.180;11.400;2023-09-08T01:30:48;9.68;;;6.68;;
48006;SDS011;33771;48.180;11.400;2023-09-08T01:33:15;10.60;;;6.78;;
48006;SDS011;33771;48.180;11.400;2023-09-08T01:35:41;11.88;;;6.70;;
48006;SDS011;33771;48.180;11.400;2023-09-08T01:38:07;8.32;;;6.50;;
48006;SDS011;33771;48.180;11.400;2023-09-08T01:40:33;8.27;;;6.32;;
48006;SDS011;33771;48.180;11.400;2023-09-08T01:43:00;11.23;;;6.45;;
48006;SDS011;33771;48.180;11.400;2023-09-08T01:45:26;9.13;;;6.97;;
48006;SDS011;33771;48.180;11.400;2023-09-08T01:47:51;10.05;;;5.88;;
48006;SDS011;33771;48.180;11.400;2023-09-08T01:50:17;9.48;;;6.07;;
48006;SDS011;33771;48.180;11.400;2023-09-08T01:52:46;9.48;;;6.25;;
48006;SDS011;33771;48.180;11.400;2023-09-08T01:55:12;9.10;;;6.20;;
48006;SDS011;33771;48.180;11.400;2023-09-08T01:57:38;11.27;;;7.45;;
48006;SDS011;33771;48.180;11.400;2023-09-08T02:00:03;10.93;;;7.00;;
48006;SDS011;33771;48.180;11.400;2023-09-08T02:02:30;12.40;;;7.50;;
48006;SDS011;33771;48.180;11.400;2023-09-08T02:04:56;10.63;;;7.30;;
48006;SDS011;33771;48.180;11.400;2023-09-08T02:07:21;11.60;;;7.30;;
48006;SDS011;33771;48.180;11.400;2023-09-08T02:09:47;11.27;;;7.03;;
48006;SDS011;33771;48.180;11.400;2023-09-08T02:12:13;11.50;;;7.97;;
48006;SDS011;33771;48.180;11.400;2023-09-08T02:14:39;13.38;;;7.78;;
48006;SDS011;33771;48.180;11.400;2023-09-08T02:17:04;11.50;;;7.30;;
48006;SDS011;33771;48.180;11.400;2023-09-08T02:19:31;11.40;;;7.18;;
48006;SDS011;33771;48.180;11.400;2023-09-08T02:21:56;11.05;;;6.80;;
48006;SDS011;33771;48.180;11.400;2023-09-08T02:24:22;11.43;;;7.60;;
48006;SDS011;33771;48.180;11.400;2023-09-08T02:26:47;11.63;;;7.05;;
48006;SDS011;33771;48.180;11.400;2023-09-08T02:29:13;11.30;;;7.35;;
48006;SDS011;33771;48.180;11.400;2023-09-08T02:31:38;8.60;;;6.63;;
48006;SDS011;33771;48.180;11.400;2023-09-08T02:34:05;8.65;;;6.78;;
48006;SDS011;33771;48.180;11.400;2023-09-08T02:36:31;10.63;;;7.13;;
48006;SDS011;33771;48.180;11.400;2023-09-08T02:38:56;9.80;;;7.45;;
48006;SDS011;33771;48.180;11.400;2023-09-08T02:41:22;13.27;;;7.90;;
48006;SDS011;33771;48.180;11.400;2023-09-08T02:43:48;10.32;;;7.28;;
48006;SDS011;33771;48.180;11.400;2023-09-08T02:46:14;10.48;;;7.55;;
48006;SDS011;33771;48.180;11.400;2023-09-08T02:48:39;8.70;;;7.13;;
48006;SDS011;33771;48.180;11.400;2023-09-08T02:51:05;10.85;;;7.10;;
48006;SDS011;33771;48.180;11.400;2023-09-08T02:53:31;11.02;;;6.75;;
48006;SDS011;33771;48.180;11.400;2023-09-08T02:55:58;9.23;;;6.18;;
48006;SDS011;33771;48.180;11.400;2023-09-08T02:58:24;11.23;;;6.95;;
48006;SDS011;33771;48.180;11.400;2023-09-08T03:00:51;8.35;;;6.70;;
48006;SDS011;33771;48.180;11.400;2023-09-08T03:03:20;9.48;;;6.80;;
48006;SDS011;33771;48.180;11.400;2023-09-08T03:05:46;12.38;;;7.05;;
48006;SDS011;33771;48.180;11.400;2023-09-08T03:08:11;10.68;;;7.10;;
48006;SDS011;33771;48.180;11.400;2023-09-08T03:10:37;12.32;;;7.75;;
48006;SDS011;33771;48.180;11.400;2023-09-08T03:13:03;8.95;;;7.32;;
48006;SDS011;33771;48.180;11.400;2023-09-08T03:15:29;10.10;;;7.63;;
48006;SDS011;33771;48.180;11.400;2023-09-08T03:17:55;10.25;;;6.68;;
48006;SDS011;33771;48.180;11.400;2023-09-08T03:20:21;9.63;;;7.25;;
48006;SDS011;33771;48.180;11.400;2023-09-08T03:22:46;9.50;;;6.93;;
48006;SDS011;33771;48.180;11.400;2023-09-08T03:25:15;12.80;;;7.25;;
48006;SDS011;33771;48.180;11.400;2023-09-08T03:27:41;10.68;;;7.25;;
48006;SDS011;33771;48.180;11.400;2023-09-08T03:30:07;10.35;;;6.78;;
48006;SDS011;33771;48.180;11.400;2023-09-08T03:32:33;9.27;;;6.50;;
48006;SDS011;33771;48.180;11.400;2023-09-08T03:34:58;12.48;;;6.90;;
48006;SDS011;33771;48.180;11.400;2023-09-08T03:37:24;12.68;;;7.00;;
48006;SDS011;33771;48.180;11.400;2023-09-08T03:39:51;11.50;;;7.63;;
48006;SDS011;33771;48.180;11.400;2023-09-08T03:42:17;9.88;;;7.20;;
48006;SDS011;33771;48.180;11.400;2023-09-08T03:44:42;10.13;;;6.90;;
48006;SDS011;33771;48.180;11.400;2023-09-08T03:47:08;9.38;;;6.47;;
48006;SDS011;33771;48.180;11.400;2023-09-08T03:49:33;10.38;;;7.03;;
48006;SDS011;33771;48.180;11.400;2023-09-08T03:51:59;8.38;;;6.65;;
48006;SDS011;33771;48.180;11.400;2023-09-08T03:54:24;10.38;;;6.72;;
48006;SDS011;33771;48.180;11.400;2023-09-08T03:56:50;9.63;;;6.68;;
48006;SDS011;33771;48.180;11.400;2023-09-08T03:59:15;10.18;;;7.40;;
48006;SDS011;33771;48.180;11.400;2023-09-08T04:01:41;9.65;;;7.18;;
48006;SDS011;33771;48.180;11.400;2023-09-08T04:04:07;11.30;;;6.65;;
48006;SDS011;33771;48.180;11.400;2023-09-08T04:06:33;9.65;;;6.72;;
48006;SDS011;33771;48.180;11.400;2023-09-08T04:08:59;12.63;;;7.32;;
48006;SDS011;33771;48.180;11.400;2023-09-08T04:11:24;10.13;;;6.90;;
48006;SDS011;33771;48.180;11.400;2023-09-08T04:13:50;10.10;;;7.00;;
48006;SDS011;33771;48.180;11.400;2023-09-08T04:16:16;11.27;;;6.78;;
48006;SDS011;33771;48.180;11.400;2023-09-08T04:18:42;9.55;;;6.97;;
48006;SDS011;33771;48.180;11.400;2023-09-08T04:21:07;9.05;;;7.30;;
48006;SDS011;33771;48.180;11.400;2023-09-08T04:23:33;11.73;;;6.97;;
48006;SDS011;33771;48.180;11.400;2023-09-08T04:25:58;9.02;;;6.95;;
48006;SDS011;33771;48.180;11.400;2023-09-08T04:28:24;9.27;;;7.47;;
48006;SDS011;33771;48.180;11.400;2023-09-08T04:30:49;9.55;;;7.30;;
48006;SDS011;33771;48.180;11.400;2023-09-08T04:33:15;10.25;;;7.07;;
48006;SDS011;33771;48.180;11.400;2023-09-08T04:35:41;11.00;;;7.32;;
48006;SDS011;33771;48.180;11.400;2023-09-08T04:38:06;9.40;;;7.22;;
48006;SDS011;33771;48.180;11.400;2023-09-08T04:40:32;10.18;;;6.78;;
48006;SDS011;33771;48.180;11.400;2023-09-08T04:42:58;9.45;;;6.75;;
48006;SDS011;33771;48.180;11.400;2023-09-08T04:45:24;11.77;;;8.20;;
48006;SDS011;33771;48.180;11.400;2023-09-08T04:47:49;11.27;;;8.27;;
48006;SDS011;33771;48.180;11.400;2023-09-08T04:50:15;11.23;;;8.52;;
48006;SDS011;33771;48.180;11.400;2023-09-08T04:52:41;12.23;;;7.80;;
48006;SDS011;33771;48.180;11.400;2023-09-08T04:55:06;12.63;;;8.30;;
48006;SDS011;33771;48.180;11.400;2023-09-08T04:57:32;11.25;;;8.30;;
48006;SDS011;33771;48.180;11.400;2023-09-08T04:59:58;11.82;;;8.02;;
48006;SDS011;33771;48.180;11.400;2023-09-08T05:02:23;11.57;;;8.52;;
48006;SDS011;33771;48.180;11.400;2023-09-08T05:04:49;13.38;;;8.50;;
48006;SDS011;33771;48.180;11.400;2023-09-08T05:07:14;11.00;;;7.82;;
48006;SDS011;33771;48.180;11.400;2023-09-08T05:09:40;11.15;;;8.27;;
48006;SDS011;33771;48.180;11.400;2023-09-08T05:12:06;11.77;;;7.50;;
48006;SDS011;33771;48.180;11.400;2023-09-08T05:14:32;12.80;;;7.60;;
48006;SDS011;33771;48.180;11.400;2023-09-08T05:16:58;10.45;;;7.85;;
48006;SDS011;33771;48.180;11.400;2023-09-08T05:19:24;10.50;;;7.40;;
48006;SDS011;33771;48.180;11.400;2023-09-08T05:21:50;11.18;;;8.30;;
48006;SDS011;33771;48.180;11.400;2023-09-08T05:24:17;11.93;;;8.95;;
48006;SDS011;33771;48.180;11.400;2023-09-08T05:26:42;13.95;;;8.93;;
48006;SDS011;33771;48.180;11.400;2023-09-08T05:29:08;12.98;;;8.98;;
48006;SDS011;33771;48.180;11.400;2023-09-08T05:31:33;11.30;;;8.23;;
48006;SDS011;33771;48.180;11.400;2023-09-08T05:33:59;12.35;;;8.20;;
48006;SDS011;33771;48.180;11.400;2023-09-08T05:36:25;12.30;;;8.15;;
48006;SDS011;33771;48.180;11.400;2023-09-08T05:38:51;10.55;;;8.18;;
48006;SDS011;33771;48.180;11.400;2023-09-08T05:41:16;10.00;;;7.53;;
48006;SDS011;33771;48.180;11.400;2023-09-08T05:43:42;13.35;;;8.40;;
48006;SDS011;33771;48.180;11.400;2023-09-08T05:46:07;11.05;;;7.55;;
48006;SDS011;33771;48.180;11.400;2023-09-08T05:48:33;10.90;;;7.57;;
48006;SDS011;33771;48.180;11.400;2023-09-08T05:50:59;13.00;;;8.00;;
48006;SDS011;33771;48.180;11.400;2023-09-08T05:53:27;11.05;;;7.72;;
48006;SDS011;33771;48.180;11.400;2023-09-08T05:55:53;10.82;;;8.13;;
48006;SDS011;33771;48.180;11.400;2023-09-08T05:58:18;9.85;;;7.32;;
48006;SDS011;33771;48.180;11.400;2023-09-08T06:00:44;12.07;;;7.88;;
48006;SDS011;33771;48.180;11.400;2023-09-08T06:03:09;11.55;;;7.47;;
48006;SDS011;33771;48.180;11.400;2023-09-08T06:05:35;11.48;;;7.18;;
48006;SDS011;33771;48.180;11.400;2023-09-08T06:08:00;11.32;;;8.43;;
48006;SDS011;33771;48.180;11.400;2023-09-08T06:10:26;9.55;;;7.82;;
48006;SDS011;33771;48.180;11.400;2023-09-08T06:12:52;14.05;;;8.27;;
48006;SDS011;33771;48.180;11.400;2023-09-08T06:15:17;13.07;;;8.88;;
48006;SDS011;33771;48.180;11.400;2023-09-08T06:17:43;11.18;;;9.00;;
48006;SDS011;33771;48.180;11.400;2023-09-08T06:20:09;9.93;;;7.95;;
48006;SDS011;33771;48.180;11.400;2023-09-08T06:22:35;10.10;;;8.55;;
48006;SDS011;33771;48.180;11.400;2023-09-08T06:25:00;11.38;;;8.80;;
48006;SDS011;33771;48.180;11.400;2023-09-08T06:27:26;9.73;;;8.50;;
48006;SDS011;33771;48.180;11.400;2023-09-08T06:29:52;10.70;;;8.68;;
48006;SDS011;33771;48.180;11.400;2023-09-08T06:32:17;10.25;;;9.02;;
48006;SDS011;33771;48.180;11.400;2023-09-08T06:34:43;11.30;;;8.45;;
48006;SDS011;33771;48.180;11.400;2023-09-08T06:37:08;24.48;;;10.00;;
48006;SDS011;33771;48.180;11.400;2023-09-08T06:39:35;10.65;;;9.13;;
48006;SDS011;33771;48.180;11.400;2023-09-08T06:42:01;11.48;;;8.82;;
48006;SDS011;33771;48.180;11.400;2023-09-08T06:44:28;15.05;;;9.45;;
48006;SDS011;33771;48.180;11.400;2023-09-08T06:46:53;13.70;;;9.77;;
48006;SDS011;33771;48.180;11.400;2023-09-08T06:49:19;12.65;;;8.90;;
48006;SDS011;33771;48.180;11.400;2023-09-08T06:51:44;13.13;;;9.18;;
48006;SDS011;33771;48.180;11.400;2023-09-08T06:54:12;14.98;;;9.10;;
48006;SDS011;33771;48.180;11.400;2023-09-08T06:56:38;13.73;;;9.85;;
48006;SDS011;33771;48.180;11.400;2023-09-08T06:59:03;13.43;;;10.15;;
48006;SDS011;33771;48.180;11.400;2023-09-08T07:01:29;12.60;;;10.15;;
48006;SDS011;33771;48.180;11.400;2023-09-08T07:03:54;15.77;;;10.10;;
48006;SDS011;33771;48.180;11.400;2023-09-08T07:06:20;14.55;;;10.52;;
48006;SDS011;33771;48.180;11.400;2023-09-08T07:08:47;11.73;;;9.20;;
48006;SDS011;33771;48.180;11.400;2023-09-08T07:11:15;14.40;;;10.63;;
48006;SDS011;33771;48.180;11.400;2023-09-08T07:13:41;14.18;;;10.88;;
48006;SDS011;33771;48.180;11.400;2023-09-08T07:16:06;14.25;;;10.32;;
48006;SDS011;33771;48.180;11.400;2023-09-08T07:18:32;16.27;;;11.57;;
48006;SDS011;33771;48.180;11.400;2023-09-08T07:21:00;12.75;;;11.38;;
48006;SDS011;33771;48.180;11.400;2023-09-08T07:23:27;15.98;;;12.63;;
48006;SDS011;33771;48.180;11.400;2023-09-08T07:25:53;15.68;;;11.57;;
48006;SDS011;33771;48.180;11.400;2023-09-08T07:28:18;16.38;;;12.52;;
48006;SDS011;33771;48.180;11.400;2023-09-08T07:30:44;16.15;;;11.88;;
48006;SDS011;33771;48.180;11.400;2023-09-08T07:33:10;13.65;;;11.52;;
48006;SDS011;33771;48.180;11.400;2023-09-08T07:35:36;16.98;;;10.95;;
48006;SDS011;33771;48.180;11.400;2023-09-08T07:38:02;15.63;;;11.35;;
48006;SDS011;33771;48.180;11.400;2023-09-08T07:40:28;14.13;;;10.60;;
48006;SDS011;33771;48.180;11.400;2023-09-08T07:42:53;14.48;;;11.43;;
48006;SDS011;33771;48.180;11.400;2023-09-08T07:45:19;16.65;;;11.80;;
48006;SDS011;33771;48.180;11.400;2023-09-08T07:47:45;14.48;;;11.25;;
48006;SDS011;33771;48.180;11.400;2023-09-08T07:50:17;14.18;;;11.05;;
48006;SDS011;33771;48.180;11.400;2023-09-08T07:52:47;17.20;;;11.43;;
48006;SDS011;33771;48.180;11.400;2023-09-08T07:55:13;13.10;;;10.85;;
48006;SDS011;33771;48.180;11.400;2023-09-08T07:57:40;16.20;;;10.70;;
48006;SDS011;33771;48.180;11.400;2023-09-08T08:00:07;13.85;;;11.57;;
48006;SDS011;33771;48.180;11.400;2023-09-08T08:02:35;15.73;;;11.65;;
48006;SDS011;33771;48.180;11.400;2023-09-08T08:05:01;17.70;;;12.60;;
48006;SDS011;33771;48.180;11.400;2023-09-08T08:07:28;13.70;;;11.05;;
48006;SDS011;33771;48.180;11.400;2023-09-08T08:09:55;15.30;;;11.52;;
48006;SDS011;33771;48.180;11.400;2023-09-08T08:12:20;16.13;;;11.88;;
48006;SDS011;33771;48.180;11.400;2023-09-08T08:14:46;12.32;;;10.40;;
48006;SDS011;33771;48.180;11.400;2023-09-08T08:17:11;15.68;;;11.82;;
48006;SDS011;33771;48.180;11.400;2023-09-08T08:19:37;14.02;;;11.27;;
48006;SDS011;33771;48.180;11.400;2023-09-08T08:22:03;15.02;;;10.68;;
48006;SDS011;33771;48.180;11.400;2023-09-08T08:24:29;15.90;;;11.35;;
48006;SDS011;33771;48.180;11.400;2023-09-08T08:26:54;14.30;;;10.90;;
48006;SDS011;33771;48.180;11.400;2023-09-08T08:29:20;15.20;;;10.57;;
48006;SDS011;33771;48.180;11.400;2023-09-08T08:31:45;16.73;;;10.52;;
48006;SDS011;33771;48.180;11.400;2023-09-08T08:34:11;14.02;;;10.45;;
48006;SDS011;33771;48.180;11.400;2023-09-08T08:36:37;14.25;;;10.27;;
48006;SDS011;33771;48.180;11.400;2023-09-08T08:39:02;14.70;;;10.77;;
48006;SDS011;33771;48.180;11.400;2023-09-08T08:41:30;14.52;;;10.82;;
48006;SDS011;33771;48.180;11.400;2023-09-08T08:43:56;12.98;;;9.65;;
48006;SDS011;33771;48.180;11.400;2023-09-08T08:46:22;15.35;;;11.02;;
48006;SDS011;33771;48.180;11.400;2023-09-08T08:48:48;13.85;;;10.43;;
48006;SDS011;33771;48.180;11.400;2023-09-08T08:51:19;17.92;;;11.40;;
48006;SDS011;33771;48.180;11.400;2023-09-08T08:53:47;14.55;;;9.85;;
48006;SDS011;33771;48.180;11.400;2023-09-08T08:56:13;15.18;;;10.50;;
48006;SDS011;33771;48.180;11.400;2023-09-08T08:58:39;15.73;;;10.35;;
48006;SDS011;33771;48.180;11.400;2023-09-08T09:01:06;13.52;;;9.52;;
48006;SDS011;33771;48.180;11.400;2023-09-08T09:03:34;15.52;;;9.82;;
48006;SDS011;33771;48.180;11.400;2023-09-08T09:06:02;13.93;;;9.57;;
48006;SDS011;33771;48.180;11.400;2023-09-08T09:08:29;15.88;;;10.38;;
48006;SDS011;33771;48.180;11.400;2023-09-08T09:10:54;13.55;;;10.18;;
48006;SDS011;33771;48.180;11.400;2023-09-08T09:13:20;12.35;;;9.60;;
48006;SDS011;33771;48.180;11.400;2023-09-08T09:15:46;13.23;;;8.90;;
48006;SDS011;33771;48.180;11.400;2023-09-08T09:18:14;11.05;;;9.20;;
48006;SDS011;33771;48.180;11.400;2023-09-08T09:20:40;15.00;;;9.95;;
48006;SDS011;33771;48.180;11.400;2023-09-08T09:23:26;12.85;;;9.00;;
48006;SDS011;33771;48.180;11.400;2023-09-08T09:25:53;12.25;;;8.43;;
48006;SDS011;33771;48.180;11.400;2023-09-08T09:28:18;9.68;;;8.50;;
48006;SDS011;33771;48.180;11.400;2023-09-08T09:30:47;11.50;;;8.75;;
48006;SDS011;33771;48.180;11.400;2023-09-08T09:33:14;10.68;;;8.75;;
48006;SDS011;33771;48.180;11.400;2023-09-08T09:35:47;10.48;;;8.35;;
48006;SDS011;33771;48.180;11.400;2023-09-08T09:38:18;13.70;;;8.45;;
48006;SDS011;33771;48.180;11.400;2023-09-08T09:40:45;15.00;;;9.32;;
48006;SDS011;33771;48.180;11.400;2023-09-08T09:43:11;12.98;;;8.50;;
48006;SDS011;33771;48.180;11.400;2023-09-08T09:45:38;11.27;;;8.10;;
48006;SDS011;33771;48.180;11.400;2023-09-08T09:48:05;12.60;;;8.52;;
48006;SDS011;33771;48.180;11.400;2023-09-08T09:50:35;9.77;;;7.88;;
48006;SDS011;33771;48.180;11.400;2023-09-08T09:53:13;9.52;;;8.20;;
48006;SDS011;33771;48.180;11.400;2023-09-08T09:55:41;9.20;;;7.82;;
48006;SDS011;33771;48.180;11.400;2023-09-08T09:58:08;9.73;;;7.18;;
48006;SDS011;33771;48.180;11.400;2023-09-08T10:00:35;10.27;;;6.95;;
48006;SDS011;33771;48.180;11.400;2023-09-08T10:03:02;11.55;;;7.65;;
48006;SDS011;33771;48.180;11.400;2023-09-08T10:05:29;9.00;;;6.50;;
48006;SDS011;33771;48.180;11.400;2023-09-08T10:07:55;10.38;;;6.80;;
48006;SDS011;33771;48.180;11.400;2023-09-08T10:10:21;12.68;;;7.25;;
48006;SDS011;33771;48.180;11.400;2023-09-08T10:12:52;9.18;;;7.10;;
48006;SDS011;33771;48.180;11.400;2023-09-08T10:15:22;11.82;;;6.70;;
48006;SDS011;33771;48.180;11.400;2023-09-08T10:17:54;9.30;;;6.70;;
48006;SDS011;33771;48.180;11.400;2023-09-08T10:20:22;16.87;;;7.43;;
48006;SDS011;33771;48.180;11.400;2023-09-08T10:22:50;9.82;;;6.68;;
48006;SDS011;33771;48.180;11.400;2023-09-08T10:25:21;11.80;;;7.43;;
48006;SDS011;33771;48.180;11.400;2023-09-08T10:27:51;9.40;;;6.55;;
48006;SDS011;33771;48.180;11.400;2023-09-08T10:30:19;12.27;;;7.00;;
48006;SDS011;33771;48.180;11.400;2023-09-08T10:32:46;9.27;;;6.53;;
48006;SDS011;33771;48.180;11.400;2023-09-08T10:35:14;12.32;;;6.18;;
48006;SDS011;33771;48.180;11.400;2023-09-08T10:37:42;7.65;;;5.70;;
48006;SDS011;33771;48.180;11.400;2023-09-08T10:40:24;8.85;;;6.00;;
48006;SDS011;33771;48.180;11.400;2023-09-08T10:43:07;7.18;;;5.53;;
48006;SDS011;33771;48.180;11.400;2023-09-08T10:45:34;8.40;;;5.85;;
48006;SDS011;33771;48.180;11.400;2023-09-08T10:48:00;7.40;;;5.03;;
48006;SDS011;33771;48.180;11.400;2023-09-08T10:50:29;9.38;;;5.53;;
48006;SDS011;33771;48.180;11.400;2023-09-08T10:53:09;6.78;;;4.93;;
48006;SDS011;33771;48.180;11.400;2023-09-08T10:55:42;9.57;;;6.63;;
48006;SDS011;33771;48.180;11.400;2023-09-08T10:58:19;7.60;;;5.80;;
48006;SDS011;33771;48.180;11.400;2023-09-08T11:01:03;8.18;;;5.03;;
48006;SDS011;33771;48.180;11.400;2023-09-08T11:06:09;8.32;;;5.50;;
48006;SDS011;33771;48.180;11.400;2023-09-08T11:08:37;8.23;;;4.90;;
48006;SDS011;33771;48.180;11.400;2023-09-08T11:11:05;7.88;;;6.22;;
48006;SDS011;33771;48.180;11.400;2023-09-08T11:13:31;9.65;;;5.65;;
48006;SDS011;33771;48.180;11.400;2023-09-08T11:15:57;8.15;;;5.07;;
48006;SDS011;33771;48.180;11.400;2023-09-08T11:18:29;7.82;;;5.80;;
48006;SDS011;33771;48.180;11.400;2023-09-08T11:20:56;8.00;;;5.60;;
48006;SDS011;33771;48.180;11.400;2023-09-08T11:23:22;10.40;;;5.93;;
48006;SDS011;33771;48.180;11.400;2023-09-08T11:25:49;7.75;;;5.05;;
48006;SDS011;33771;48.180;11.400;2023-09-08T11:28:16;7.35;;;5.30;;
48006;SDS011;33771;48.180;11.400;2023-09-08T11:30:43;7.60;;;4.78;;
48006;SDS011;33771;48.180;11.400;2023-09-08T11:33:15;11.32;;;5.22;;
48006;SDS011;33771;48.180;11.400;2023-09-08T11:35:41;7.88;;;5.50;;
48006;SDS011;33771;48.180;11.400;2023-09-08T11:38:11;11.07;;;5.90;;
48006;SDS011;33771;48.180;11.400;2023-09-08T11:40:37;8.25;;;5.90;;
48006;SDS011;33771;48.180;11.400;2023-09-08T11:43:03;6.45;;;5.28;;
48006;SDS011;33771;48.180;11.400;2023-09-08T11:45:30;9.27;;;5.10;;
48006;SDS011;33771;48.180;11.400;2023-09-08T11:47:58;7.07;;;5.05;;
48006;SDS011;33771;48.180;11.400;2023-09-08T11:50:24;8.10;;;5.25;;
48006;SDS011;33771;48.180;11.400;2023-09-08T11:52:51;6.93;;;5.22;;
48006;SDS011;33771;48.180;11.400;2023-09-08T11:55:17;8.27;;;5.18;;
48006;SDS011;33771;48.180;11.400;2023-09-08T11:57:46;8.88;;;4.68;;
48006;SDS011;33771;48.180;11.400;2023-09-08T12:00:13;6.85;;;4.90;;
48006;SDS011;33771;48.180;11.400;2023-09-08T12:02:43;7.63;;;4.68;;
48006;SDS011;33771;48.180;11.400;2023-09-08T12:05:13;8.63;;;4.75;;
48006;SDS011;33771;48.180;11.400;2023-09-08T12:07:46;5.45;;;4.53;;
48006;SDS011;33771;48.180;11.400;2023-09-08T12:10:12;8.38;;;4.93;;
48006;SDS011;33771;48.180;11.400;2023-09-08T12:12:42;7.68;;;4.68;;
48006;SDS011;33771;48.180;11.400;2023-09-08T12:15:11;8.57;;;4.72;;
48006;SDS011;33771;48.180;11.400;2023-09-08T12:17:54;6.05;;;5.10;;
48006;SDS011;33771;48.180;11.400;2023-09-08T12:20:19;7.80;;;5.10;;
48006;SDS011;33771;48.180;11.400;2023-09-08T12:22:49;8.93;;;4.72;;
48006;SDS011;33771;48.180;11.400;2023-09-08T12:25:15;8.55;;;5.10;;
48006;SDS011;33771;48.180;11.400;2023-09-08T12:27:41;6.22;;;4.60;;
48006;SDS011;33771;48.180;11.400;2023-09-08T12:30:07;7.32;;;5.15;;
48006;SDS011;33771;48.180;11.400;2023-09-08T12:32:34;5.35;;;4.78;;
48006;SDS011;33771;48.180;11.400;2023-09-08T12:35:01;6.97;;;5.20;;
48006;SDS011;33771;48.180;11.400;2023-09-08T12:37:28;6.40;;;4.68;;
48006;SDS011;33771;48.180;11.400;2023-09-08T12:39:57;7.20;;;5.07;;
48006;SDS011;33771;48.180;11.400;2023-09-08T12:42:23;6.65;;;4.85;;
48006;SDS011;33771;48.180;11.400;2023-09-08T12:44:54;6.20;;;5.10;;
48006;SDS011;33771;48.180;11.400;2023-09-08T12:47:20;7.15;;;5.40;;
48006;SDS011;33771;48.180;11.400;2023-09-08T12:49:45;7.55;;;5.45;;
48006;SDS011;33771;48.180;11.400;2023-09-08T12:52:11;7.15;;;4.93;;
48006;SDS011;33771;48.180;11.400;2023-09-08T12:54:37;8.40;;;4.70;;
48006;SDS011;33771;48.180;11.400;2023-09-08T12:57:02;6.47;;;4.82;;
48006;SDS011;33771;48.180;11.400;2023-09-08T12:59:28;6.32;;;5.10;;
48006;SDS011;33771;48.180;11.400;2023-09-08T13:01:54;8.32;;;5.68;;
48006;SDS011;33771;48.180;11.400;2023-09-08T13:04:20;8.27;;;5.03;;
48006;SDS011;33771;48.180;11.400;2023-09-08T13:06:47;8.20;;;4.72;;
48006;SDS011;33771;48.180;11.400;2023-09-08T13:09:13;8.80;;;4.75;;
48006;SDS011;33771;48.180;11.400;2023-09-08T13:11:39;6.88;;;4.75;;
48006;SDS011;33771;48.180;11.400;2023-09-08T13:14:04;10.15;;;5.70;;
48006;SDS011;33771;48.180;11.400;2023-09-08T13:16:30;7.38;;;5.20;;
48006;SDS011;33771;48.180;11.400;2023-09-08T13:18:55;6.05;;;5.18;;
48006;SDS011;33771;48.180;11.400;2023-09-08T13:21:21;7.75;;;4.78;;
48006;SDS011;33771;48.180;11.400;2023-09-08T13:23:47;8.20;;;5.55;;
48006;SDS011;33771;48.180;11.400;2023-09-08T13:26:12;11.40;;;5.00;;
48006;SDS011;33771;48.180;11.400;2023-09-08T13:28:38;8.13;;;4.93;;
48006;SDS011;33771;48.180;11.400;2023-09-08T13:31:03;8.40;;;4.28;;
48006;SDS011;33771;48.180;11.400;2023-09-08T13:33:29;8.73;;;5.25;;
48006;SDS011;33771;48.180;11.400;2023-09-08T13:35:54;7.82;;;4.68;;
48006;SDS011;33771;48.180;11.400;2023-09-08T13:38:20;7.45;;;4.68;;
48006;SDS011;33771;48.180;11.400;2023-09-08T13:40:46;6.00;;;4.72;;
48006;SDS011;33771;48.180;11.400;2023-09-08T13:43:12;6.38;;;4.70;;
48006;SDS011;33771;48.180;11.400;2023-09-08T13:45:37;6.28;;;4.68;;
48006;SDS011;33771;48.180;11.400;2023-09-08T13:48:03;9.13;;;5.15;;
48006;SDS011;33771;48.180;11.400;2023-09-08T13:50:31;9.20;;;5.20;;
48006;SDS011;33771;48.180;11.400;2023-09-08T13:52:56;9.95;;;5.40;;
48006;SDS011;33771;48.180;11.400;2023-09-08T13:55:22;11.70;;;4.97;;
48006;SDS011;33771;48.180;11.400;2023-09-08T13:57:49;11.52;;;4.75;;
48006;SDS011;33771;48.180;11.400;2023-09-08T14:00:15;14.38;;;4.88;;
48006;SDS011;33771;48.180;11.400;2023-09-08T14:02:41;9.57;;;4.80;;
48006;SDS011;33771;48.180;11.400;2023-09-08T14:05:07;7.10;;;4.93;;
48006;SDS011;33771;48.180;11.400;2023-09-08T14:07:33;6.55;;;4.78;;
48006;SDS011;33771;48.180;11.400;2023-09-08T14:09:58;8.07;;;5.00;;
48006;SDS011;33771;48.180;11.400;2023-09-08T14:12:24;7.68;;;4.97;;
48006;SDS011;33771;48.180;11.400;2023-09-08T14:14:49;7.30;;;4.82;;
48006;SDS011;33771;48.180;11.400;2023-09-08T14:17:15;6.65;;;5.20;;
48006;SDS011;33771;48.180;11.400;2023-09-08T14:19:41;7.65;;;4.90;;
48006;SDS011;33771;48.180;11.400;2023-09-08T14:22:06;5.38;;;4.70;;
48006;SDS011;33771;48.180;11.400;2023-09-08T14:24:32;5.72;;;4.65;;
48006;SDS011;33771;48.180;11.400;2023-09-08T14:26:58;6.07;;;4.55;;
48006;SDS011;33771;48.180;11.400;2023-09-08T14:29:23;5.68;;;5.00;;